Terminal Aerodrome Forecast
Issued by NWS

Home | Current Version | Previous Version | Text Only | Print | Product List | Glossary On
Versions: 1 2 3 4 5 6 7 8 9 10 11 12 13
000
FTPA31 PHFO 292328
TAFHMK
TAF
PHMK 292328Z 3000/3024 03012G20KT P6SM SCT030 BKN060
     FM300500 03009KT P6SM VCSH SCT040 BKN060
     FM302000 04012G20KT P6SM SCT030 SCT060=

USA.gov is the U.S. government's official web portal to all federal, state and local government web resources and services.